Terminal Aerodrome Forecast
Issued by NWS

Home | Current Version | Previous Version | Text Only | Print | Product List | Glossary On
Versions: 1 2 3 4 5 6 7 8 9 10 11 12 13 14 15 16 17 18 19 20 21
000
FTUS46 KLOX 052300
TAFPRB
TAF
KPRB 052339Z 0600/0624 21015G22KT P6SM SKC
     FM060400 21008KT P6SM SKC
     FM060600 30008KT P6SM SCT007
     FM060900 VRB03KT P6SM OVC010
     FM061700 VRB03KT P6SM BKN020
     FM062000 21012KT P6SM SCT025
     FM062200 21017G25KT P6SM SCT025=

USA.gov is the U.S. government's official web portal to all federal, state and local government web resources and services.